createdAt,value
2019-01-02T00:00:50.742Z,0.24
2019-01-02T00:01:51.449Z,0.26
2019-01-02T00:02:50.701Z,0.23
2019-01-02T00:03:50.685Z,0.24
2019-01-02T00:04:51.244Z,0.26
2019-01-02T00:05:50.644Z,0.26
2019-01-02T00:06:50.624Z,0.32
2019-01-02T00:07:50.602Z,0.28
2019-01-02T00:08:50.592Z,0.23
2019-01-02T00:09:51.187Z,0.23
2019-01-02T00:10:50.551Z,0.24
2019-01-02T00:11:50.529Z,0.21
2019-01-02T00:12:50.859Z,0.16
2019-01-02T00:13:50.492Z,0.2
2019-01-02T00:14:50.219Z,0.24
2019-01-02T00:15:50.449Z,0.27
2019-01-02T00:16:50.428Z,0.24
2019-01-02T00:17:51.040Z,0.24
2019-01-02T00:18:50.392Z,0.23
2019-01-02T00:19:50.376Z,0.21
2019-01-02T00:20:50.911Z,0.27
2019-01-02T00:21:50.345Z,0.27
2019-01-02T00:22:50.075Z,0.24
2019-01-02T00:23:50.207Z,0.23
2019-01-02T00:24:50.266Z,0.23
2019-01-02T00:25:50.414Z,0.26
2019-01-02T00:26:50.236Z,0.28
2019-01-02T00:27:50.222Z,0.28
2019-01-02T00:28:50.526Z,0.21
2019-01-02T00:29:50.179Z,0.28
2019-01-02T00:30:50.168Z,0.27
2019-01-02T00:31:50.162Z,0.23
2019-01-02T00:32:50.277Z,0.26
2019-01-02T00:33:50.408Z,0.34
2019-01-02T00:34:50.084Z,0.28
2019-01-02T00:35:49.811Z,0.27
2019-01-02T00:36:50.622Z,0.23
2019-01-02T00:37:50.028Z,0.26
2019-01-02T00:38:50.311Z,0.24
2019-01-02T00:39:49.996Z,0.28
2019-01-02T00:40:49.965Z,0.31
2019-01-02T00:41:50.505Z,0.31
2019-01-02T00:42:49.968Z,0.31
2019-01-02T00:43:50.151Z,0.26
2019-01-02T00:44:49.645Z,0.26
2019-01-02T00:45:49.878Z,0.26
2019-01-02T00:46:50.163Z,0.23
2019-01-02T00:47:49.837Z,0.27
2019-01-02T00:48:49.820Z,0.2
2019-01-02T00:49:50.374Z,0.26
2019-01-02T00:50:49.784Z,0.19
2019-01-02T00:51:50.388Z,0.2
2019-01-02T00:52:49.735Z,0.19
2019-01-02T00:53:49.229Z,0.16
2019-01-02T00:54:50.424Z,0.21
2019-01-02T00:55:49.447Z,0.19
2019-01-02T00:56:49.983Z,0.13
2019-01-02T00:57:49.644Z,0.14
2019-01-02T00:58:49.624Z,0.13
2019-01-02T00:59:50.232Z,0.08
2019-01-02T01:00:49.593Z,0.14
2019-01-02T01:01:50.352Z,0.09
2019-01-02T01:02:49.558Z,0.09
2019-01-02T01:03:49.287Z,0.01
2019-01-02T01:04:49.952Z,0.01
2019-01-02T01:05:49.489Z,0.03
2019-01-02T01:06:50.072Z,0.01
2019-01-02T01:07:49.450Z,0.02
2019-01-02T01:08:49.446Z,0.02
2019-01-02T01:09:49.711Z,0.02
2019-01-02T01:10:49.397Z,0.03
2019-01-02T01:11:49.581Z,0.03
2019-01-02T01:12:49.113Z,0.01
2019-01-02T01:13:49.329Z,0.06
2019-01-02T01:14:49.799Z,-0.05
2019-01-02T01:15:49.327Z,-0.04
2019-01-02T01:16:49.764Z,-0.07
2019-01-02T01:17:49.254Z,-0.01
2019-01-02T01:18:49.241Z,-0.01
2019-01-02T01:19:49.465Z,0.01
2019-01-02T01:20:49.212Z,-0.05
2019-01-02T01:21:49.545Z,-0.05
2019-01-02T01:22:49.159Z,-0.05
2019-01-02T01:23:49.142Z,0.01
2019-01-02T01:24:49.788Z,-0.04
2019-01-02T01:25:49.114Z,-0.01
2019-01-02T01:26:49.078Z,-0.01
2019-01-02T01:27:49.471Z,-0.04
2019-01-02T01:28:49.052Z,0.03
2019-01-02T01:29:49.018Z,-0.04
2019-01-02T01:30:49.504Z,-0.04
2019-01-02T01:31:48.980Z,-0.02
2019-01-02T01:32:48.722Z,-0.01
2019-01-02T01:33:49.551Z,-0.01
2019-01-02T01:34:48.679Z,0.02
2019-01-02T01:35:48.904Z,0.05
2019-01-02T01:36:49.484Z,0.01
2019-01-02T01:37:48.867Z,-0.04
2019-01-02T01:38:48.848Z,0.01
2019-01-02T01:39:49.205Z,0.01
2019-01-02T01:40:48.807Z,-0.01
2019-01-02T01:41:48.553Z,-0.04
2019-01-02T01:42:49.019Z,0.02
2019-01-02T01:43:48.761Z,0.03
2019-01-02T01:44:49.146Z,0.01
2019-01-02T01:45:48.721Z,0.05
2019-01-02T01:46:48.691Z,0.01
2019-01-02T01:47:49.322Z,0.03
2019-01-02T01:48:48.654Z,0.05
2019-01-02T01:49:48.391Z,-0.01
2019-01-02T01:50:49.327Z,0.02
2019-01-02T01:51:48.601Z,-0.01
2019-01-02T01:52:48.328Z,0.02
2019-01-02T01:53:49.102Z,0.05
2019-01-02T01:54:48.541Z,0.03
2019-01-02T01:55:48.271Z,0.09
2019-01-02T01:56:49.112Z,0.09
2019-01-02T01:57:48.482Z,0.02
2019-01-02T01:58:48.467Z,0.06
2019-01-02T01:59:48.942Z,0.02
2019-01-02T02:00:48.420Z,0.14
2019-01-02T02:01:48.158Z,0.06
2019-01-02T02:02:48.387Z,0.09
2019-01-02T02:03:48.414Z,0.08
2019-01-02T02:04:48.386Z,0.08
2019-01-02T02:05:48.318Z,0.13
2019-01-02T02:06:48.304Z,0.08
2019-01-02T02:07:48.815Z,0.16
2019-01-02T02:08:48.263Z,0.1
2019-01-02T02:09:48.002Z,0.06
2019-01-02T02:10:48.848Z,0.1
2019-01-02T02:11:48.208Z,0.08
2019-01-02T02:12:48.210Z,0.14
2019-01-02T02:13:48.775Z,0.1
2019-01-02T02:14:48.159Z,0.03
2019-01-02T02:15:48.135Z,0.05
2019-01-02T02:16:48.408Z,0.17
2019-01-02T02:17:47.845Z,0.02
2019-01-02T02:18:48.069Z,0.09
2019-01-02T02:19:48.614Z,0.09
2019-01-02T02:20:48.030Z,0.08
2019-01-02T02:21:48.352Z,0.05
2019-01-02T02:22:48.002Z,0.17
2019-01-02T02:23:47.730Z,0.1
2019-01-02T02:24:48.474Z,0.1
2019-01-02T02:25:47.941Z,0.1
2019-01-02T02:26:47.666Z,0.1
2019-01-02T02:27:48.579Z,0.17
2019-01-02T02:28:47.884Z,0.09
2019-01-02T02:29:47.859Z,0.14
2019-01-02T02:30:48.421Z,0.2
2019-01-02T02:31:47.824Z,0.17
2019-01-02T02:32:48.558Z,0.09
2019-01-02T02:33:48.134Z,0.14
2019-01-02T02:34:47.761Z,0.08
2019-01-02T02:35:48.391Z,0.19
2019-01-02T02:36:48.225Z,0.13
2019-01-02T02:37:47.709Z,0.2
2019-01-02T02:38:48.228Z,0.14
2019-01-02T02:39:47.826Z,0.06
2019-01-02T02:40:47.641Z,0.08
2019-01-02T02:41:47.816Z,0.16
2019-01-02T02:42:48.264Z,0.1
2019-01-02T02:43:47.589Z,0.1
2019-01-02T02:44:47.321Z,0.13
2019-01-02T02:45:48.153Z,0.13
2019-01-02T02:46:47.541Z,0.2
2019-01-02T02:47:48.202Z,0.06
2019-01-02T02:48:47.937Z,0.17
2019-01-02T02:49:47.223Z,0.17
2019-01-02T02:50:48.044Z,0.14
2019-01-02T02:51:48.161Z,0.13
2019-01-02T02:52:47.422Z,0.2
2019-01-02T02:53:47.727Z,0.16
2019-01-02T02:54:47.378Z,0.14
2019-01-02T02:55:47.743Z,0.2
2019-01-02T02:56:48.091Z,0.1
2019-01-02T02:57:47.326Z,0.17
2019-01-02T02:58:47.689Z,0.08
2019-01-02T02:59:47.278Z,0.14
2019-01-02T03:00:48.027Z,0.09
2019-01-02T03:01:47.848Z,0.14
2019-01-02T03:02:46.973Z,0.13
2019-01-02T03:03:47.576Z,0.13
2019-01-02T03:04:47.819Z,0.14
2019-01-02T03:05:47.164Z,0.1
2019-01-02T03:06:49.480Z,0.09
2019-01-02T03:07:47.839Z,0.1
2019-01-02T03:08:47.110Z,0.09
2019-01-02T03:09:47.494Z,0.19
2019-01-02T03:10:47.686Z,0.14
2019-01-02T03:11:46.800Z,0.08
2019-01-02T03:12:47.568Z,0.17
2019-01-02T03:13:47.526Z,0.16
2019-01-02T03:14:46.987Z,0.09
2019-01-02T03:15:47.409Z,0.19
2019-01-02T03:16:48.549Z,0.16
2019-01-02T03:17:46.927Z,0.08
2019-01-02T03:18:47.131Z,0.09
2019-01-02T03:19:47.574Z,0.09
2019-01-02T03:20:46.871Z,0.1
2019-01-02T03:21:47.301Z,0.1
2019-01-02T03:22:47.218Z,0.13
2019-01-02T03:23:46.817Z,0.08
2019-01-02T03:24:47.299Z,0.06
2019-01-02T03:25:47.265Z,0.2
2019-01-02T03:26:46.756Z,0.1
2019-01-02T03:27:47.431Z,0.1
2019-01-02T03:28:47.277Z,0.13
2019-01-02T03:29:46.691Z,0.14
2019-01-02T03:30:47.122Z,0.13
2019-01-02T03:31:46.947Z,0.19
2019-01-02T03:32:47.256Z,0.23
2019-01-02T03:33:46.613Z,0.13
2019-01-02T03:34:46.584Z,0.13
2019-01-02T03:35:46.566Z,0.16
2019-01-02T03:36:46.052Z,0.2
2019-01-02T03:37:46.525Z,0.2
2019-01-02T03:38:46.512Z,0.21
2019-01-02T03:39:46.491Z,0.19
2019-01-02T03:40:46.470Z,0.2
2019-01-02T03:41:46.211Z,0.16
2019-01-02T03:42:46.432Z,0.16
2019-01-02T03:43:46.411Z,0.21
2019-01-02T03:44:46.946Z,0.17
2019-01-02T03:45:46.379Z,0.16
2019-01-02T03:46:46.355Z,0.2
2019-01-02T03:47:46.332Z,0.17
2019-01-02T03:48:46.314Z,0.17
2019-01-02T03:49:46.298Z,0.13
2019-01-02T03:50:46.284Z,0.17
2019-01-02T03:51:46.257Z,0.19
2019-01-02T03:52:46.242Z,0.21
2019-01-02T03:53:46.217Z,0.23
2019-01-02T03:54:46.203Z,0.24
2019-01-02T03:55:46.179Z,0.2
2019-01-02T03:56:46.167Z,0.21
2019-01-02T03:57:46.144Z,0.21
2019-01-02T03:58:46.123Z,0.17
2019-01-02T03:59:46.097Z,0.14
2019-01-02T04:00:46.082Z,0.16
2019-01-02T04:01:46.068Z,0.23
2019-01-02T04:02:46.085Z,0.21
2019-01-02T04:03:46.026Z,0.24
2019-01-02T04:04:46.006Z,0.17
2019-01-02T04:05:45.988Z,0.2
2019-01-02T04:06:45.730Z,0.19
2019-01-02T04:07:45.947Z,0.16
2019-01-02T04:08:45.932Z,0.2
2019-01-02T04:09:45.923Z,0.16
2019-01-02T04:10:45.887Z,0.2
2019-01-02T04:11:45.868Z,0.23
2019-01-02T04:12:45.603Z,0.14
2019-01-02T04:13:45.840Z,0.24
2019-01-02T04:14:45.820Z,0.21
2019-01-02T04:15:45.550Z,0.16
2019-01-02T04:16:45.776Z,0.21
2019-01-02T04:17:45.765Z,0.2
2019-01-02T04:18:45.746Z,0.23
2019-01-02T04:19:45.714Z,0.17
2019-01-02T04:20:45.454Z,0.16
2019-01-02T04:21:45.427Z,0.19
2019-01-02T04:22:45.659Z,0.17
2019-01-02T04:23:45.645Z,0.17
2019-01-02T04:24:45.624Z,0.2
2019-01-02T04:25:45.608Z,0.19
2019-01-02T04:26:45.581Z,0.21
2019-01-02T04:27:45.317Z,0.21
2019-01-02T04:28:45.298Z,0.2
2019-01-02T04:29:45.524Z,0.26
2019-01-02T04:30:45.500Z,0.27
2019-01-02T04:31:45.481Z,0.24
2019-01-02T04:32:45.465Z,0.26
2019-01-02T04:33:45.449Z,0.28
2019-01-02T04:34:45.180Z,0.28
2019-01-02T04:35:45.410Z,0.26
2019-01-02T04:36:45.394Z,0.32
2019-01-02T04:37:45.365Z,0.23
2019-01-02T04:38:45.352Z,0.23
2019-01-02T04:39:45.083Z,0.23
2019-01-02T04:40:45.313Z,0.35
2019-01-02T04:41:45.305Z,0.24
2019-01-02T04:42:45.282Z,0.31
2019-01-02T04:43:45.259Z,0.23
2019-01-02T04:44:45.241Z,0.31
2019-01-02T04:45:44.962Z,0.34
2019-01-02T04:46:45.195Z,0.28
2019-01-02T04:47:45.182Z,0.35
2019-01-02T04:48:44.911Z,0.28
2019-01-02T04:49:45.141Z,0.38
2019-01-02T04:50:44.926Z,0.27
2019-01-02T04:51:45.099Z,0.34
2019-01-02T04:52:45.083Z,0.27
2019-01-02T04:53:45.073Z,0.28
2019-01-02T04:54:45.038Z,0.37
2019-01-02T04:55:44.776Z,0.31
2019-01-02T04:56:45.013Z,0.24
2019-01-02T04:57:44.988Z,0.35
2019-01-02T04:58:44.965Z,0.32
2019-01-02T04:59:44.953Z,0.37
2019-01-02T05:00:44.680Z,0.31
2019-01-02T05:01:44.908Z,0.34
2019-01-02T05:02:44.639Z,0.31
2019-01-02T05:03:44.873Z,0.35
2019-01-02T05:04:44.865Z,0.34
2019-01-02T05:05:44.831Z,0.27
2019-01-02T05:06:44.809Z,0.26
2019-01-02T05:07:44.806Z,0.31
2019-01-02T05:08:44.772Z,0.34
2019-01-02T05:09:44.751Z,0.34
2019-01-02T05:10:44.735Z,0.37
2019-01-02T05:11:44.223Z,0.37
2019-01-02T05:12:44.696Z,0.27
2019-01-02T05:13:44.677Z,0.31
2019-01-02T05:14:44.657Z,0.31
2019-01-02T05:15:44.689Z,0.38
2019-01-02T05:16:44.621Z,0.28
2019-01-02T05:17:44.604Z,0.27
2019-01-02T05:18:44.582Z,0.31
2019-01-02T05:19:44.559Z,0.35
2019-01-02T05:20:44.540Z,0.24
2019-01-02T05:21:44.517Z,0.26
2019-01-02T05:22:44.506Z,0.28
2019-01-02T05:23:44.485Z,0.37
2019-01-02T05:24:44.468Z,0.26
2019-01-02T05:25:44.207Z,0.23
2019-01-02T05:26:44.428Z,0.26
2019-01-02T05:27:44.413Z,0.35
2019-01-02T05:28:44.392Z,0.24
2019-01-02T05:29:44.369Z,0.24
2019-01-02T05:30:44.350Z,0.26
2019-01-02T05:31:44.332Z,0.26
2019-01-02T05:32:44.315Z,0.26
2019-01-02T05:33:44.289Z,0.26
2019-01-02T05:34:44.272Z,0.23
2019-01-02T05:35:44.249Z,0.28
2019-01-02T05:36:44.231Z,0.26
2019-01-02T05:37:43.970Z,0.23
2019-01-02T05:38:43.949Z,0.24
2019-01-02T05:39:44.175Z,0.28
2019-01-02T05:40:44.159Z,0.23
2019-01-02T05:41:44.138Z,0.23
2019-01-02T05:42:44.115Z,0.28
2019-01-02T05:43:44.100Z,0.19
2019-01-02T05:44:44.076Z,0.21
2019-01-02T05:45:44.056Z,0.23
2019-01-02T05:46:44.053Z,0.21
2019-01-02T05:47:43.775Z,0.26
2019-01-02T05:48:44.003Z,0.21
2019-01-02T05:49:43.733Z,0.19
2019-01-02T05:50:43.961Z,0.14
2019-01-02T05:51:43.693Z,0.21
2019-01-02T05:52:43.683Z,0.24
2019-01-02T05:53:43.906Z,0.19
2019-01-02T05:54:43.888Z,0.2
2019-01-02T05:55:43.869Z,0.17
2019-01-02T05:56:43.611Z,0.2
2019-01-02T05:57:43.830Z,0.17
2019-01-02T05:58:43.569Z,0.16
2019-01-02T05:59:43.796Z,0.13
2019-01-02T06:00:44.709Z,0.2
2019-01-02T06:01:43.750Z,0.17
2019-01-02T06:02:43.741Z,0.16
2019-01-02T06:03:43.708Z,0.13
2019-01-02T06:04:43.445Z,0.23
2019-01-02T06:05:43.684Z,0.14
2019-01-02T06:06:43.656Z,0.19
2019-01-02T06:07:43.633Z,0.16
2019-01-02T06:08:43.616Z,0.16
2019-01-02T06:09:43.598Z,0.17
2019-01-02T06:10:43.579Z,0.09
2019-01-02T06:11:43.557Z,0.17
2019-01-02T06:12:43.536Z,0.08
2019-01-02T06:13:43.519Z,0.16
2019-01-02T06:14:43.497Z,0.03
2019-01-02T06:15:43.234Z,0.05
2019-01-02T06:16:43.220Z,0.14
2019-01-02T06:17:43.455Z,0.13
2019-01-02T06:18:43.422Z,0.09
2019-01-02T06:19:43.402Z,0.1
2019-01-02T06:20:43.142Z,0.14
2019-01-02T06:21:43.367Z,0.13
2019-01-02T06:22:43.102Z,0.08
2019-01-02T06:23:43.328Z,0.14
2019-01-02T06:24:43.314Z,0.17
2019-01-02T06:25:43.288Z,0.17
2019-01-02T06:26:43.271Z,0.09
2019-01-02T06:27:42.999Z,0.19
2019-01-02T06:28:43.230Z,-0.01
2019-01-02T06:29:43.208Z,0.08
2019-01-02T06:30:43.193Z,0.08
2019-01-02T06:31:43.174Z,0.1
2019-01-02T06:32:43.157Z,0.06
2019-01-02T06:33:42.888Z,0.1
2019-01-02T06:34:43.117Z,0.05
2019-01-02T06:35:43.098Z,0.09
2019-01-02T06:36:43.088Z,0.03
2019-01-02T06:37:43.057Z,0.06
2019-01-02T06:38:42.795Z,0.02
2019-01-02T06:39:43.019Z,0.08
2019-01-02T06:40:42.998Z,0.13
2019-01-02T06:41:42.982Z,0.06
2019-01-02T06:42:42.722Z,0.05
2019-01-02T06:43:42.946Z,0.09
2019-01-02T06:44:42.918Z,0.02
2019-01-02T06:45:42.897Z,0.05
2019-01-02T06:46:42.884Z,0.03
2019-01-02T06:47:42.864Z,0.02
2019-01-02T06:48:42.850Z,0.06
2019-01-02T06:49:42.823Z,-0.01
2019-01-02T06:50:42.804Z,0.02
2019-01-02T06:51:42.785Z,0.03
2019-01-02T06:52:42.775Z,0.05
2019-01-02T06:53:42.744Z,0.06
2019-01-02T06:54:42.726Z,0.02
2019-01-02T06:55:42.461Z,0.06
2019-01-02T06:56:42.688Z,0.02
2019-01-02T06:57:42.676Z,0.01
2019-01-02T06:58:42.647Z,0.13
2019-01-02T06:59:42.635Z,0.03
2019-01-02T07:00:42.609Z,0.05
2019-01-02T07:01:42.591Z,0.06
2019-01-02T07:02:42.573Z,0.06
2019-01-02T07:03:42.548Z,0.09
2019-01-02T07:04:42.528Z,0.05
2019-01-02T07:05:42.518Z,0.09
2019-01-02T07:06:42.490Z,0.05
2019-01-02T07:07:42.476Z,0.1
2019-01-02T07:08:42.463Z,0.14
2019-01-02T07:09:42.434Z,0.1
2019-01-02T07:10:42.180Z,0.09
2019-01-02T07:11:42.503Z,0.08
2019-01-02T07:12:42.427Z,0.03
2019-01-02T07:13:42.108Z,0.13
2019-01-02T07:14:42.090Z,0.08
2019-01-02T07:15:42.315Z,0.13
2019-01-02T07:16:42.312Z,0.06
2019-01-02T07:17:42.276Z,0.03
2019-01-02T07:18:42.014Z,0.05
2019-01-02T07:19:42.244Z,0.01
2019-01-02T07:20:42.220Z,0.09
2019-01-02T07:21:42.198Z,0.03
2019-01-02T07:22:42.188Z,0.03
2019-01-02T07:23:42.171Z,0.06
2019-01-02T07:24:42.148Z,0.13
2019-01-02T07:25:42.122Z,0.06
2019-01-02T07:26:42.110Z,0.05
2019-01-02T07:27:42.089Z,0.13
2019-01-02T07:28:42.068Z,0.01
2019-01-02T07:29:42.049Z,0.06
2019-01-02T07:30:42.027Z,0.05
2019-01-02T07:31:42.010Z,0.01
2019-01-02T07:32:41.989Z,0.03
2019-01-02T07:33:41.980Z,0.02
2019-01-02T07:34:41.953Z,0.03
2019-01-02T07:35:41.932Z,0.13
2019-01-02T07:36:41.910Z,0.09
2019-01-02T07:37:41.900Z,0.06
2019-01-02T07:38:42.008Z,0.08
2019-01-02T07:39:41.887Z,0.09
2019-01-02T07:40:41.832Z,0.14
2019-01-02T07:41:41.818Z,0.14
2019-01-02T07:42:41.796Z,0.1
2019-01-02T07:43:41.778Z,0.13
2019-01-02T07:44:41.509Z,0.03
2019-01-02T07:45:41.496Z,0.13
2019-01-02T07:46:42.312Z,0.09
2019-01-02T07:47:41.710Z,0.1
2019-01-02T07:48:41.711Z,0.08
2019-01-02T07:49:41.410Z,0.06
2019-01-02T07:50:41.641Z,0.06
2019-01-02T07:51:41.669Z,0.1
2019-01-02T07:52:41.601Z,0.08
2019-01-02T07:53:41.583Z,0.08
2019-01-02T07:54:41.359Z,0.06
2019-01-02T07:55:41.550Z,0.05
2019-01-02T07:56:41.296Z,0.13
2019-01-02T07:57:41.256Z,-0.02
2019-01-02T07:58:41.485Z,0.05
2019-01-02T07:59:41.480Z,0.17
2019-01-02T08:00:41.442Z,0.13
2019-01-02T08:01:41.185Z,0.19
2019-01-02T08:02:41.408Z,0.08
2019-01-02T08:03:41.387Z,0.16
2019-01-02T08:04:41.366Z,0.09
2019-01-02T08:05:41.348Z,0.03
2019-01-02T08:06:41.326Z,0.05
2019-01-02T08:07:41.309Z,0.05
2019-01-02T08:08:41.293Z,0.08
2019-01-02T08:09:41.287Z,0.14
2019-01-02T08:10:41.263Z,0.09
2019-01-02T08:11:41.230Z,0.08
2019-01-02T08:12:41.214Z,0.02
2019-01-02T08:13:41.192Z,0.08
2019-01-02T08:14:41.176Z,0.08
2019-01-02T08:15:41.166Z,0.03
2019-01-02T08:16:41.138Z,0.09
2019-01-02T08:17:41.120Z,0.17
2019-01-02T08:18:40.846Z,0.06
2019-01-02T08:19:41.079Z,0.06
2019-01-02T08:20:41.057Z,0.09
2019-01-02T08:21:41.037Z,0.05
2019-01-02T08:22:41.018Z,0.17
2019-01-02T08:23:40.995Z,0.14
2019-01-02T08:24:40.982Z,0.17
2019-01-02T08:25:40.960Z,0.16
2019-01-02T08:26:40.942Z,0.17
2019-01-02T08:27:40.919Z,0.14
2019-01-02T08:28:40.905Z,0.13
2019-01-02T08:29:40.886Z,0.13
2019-01-02T08:30:40.861Z,0.09
2019-01-02T08:31:40.839Z,0.14
2019-01-02T08:32:41.124Z,0.17
2019-01-02T08:33:40.559Z,0.14
2019-01-02T08:34:40.786Z,0.14
2019-01-02T08:35:41.895Z,0.13
2019-01-02T08:36:40.754Z,0.08
2019-01-02T08:37:40.728Z,0.26
2019-01-02T08:38:40.714Z,0.17
2019-01-02T08:39:40.684Z,0.1
2019-01-02T08:40:40.671Z,0.16
2019-01-02T08:41:40.655Z,0.14
2019-01-02T08:42:40.634Z,0.17
2019-01-02T08:43:40.619Z,0.13
2019-01-02T08:44:40.601Z,0.23
2019-01-02T08:45:40.612Z,0.19
2019-01-02T08:46:40.554Z,0.28
2019-01-02T08:47:40.287Z,0.19
2019-01-02T08:48:40.513Z,0.19
2019-01-02T08:49:40.492Z,0.17
2019-01-02T08:50:40.474Z,0.19
2019-01-02T08:51:40.459Z,0.27
2019-01-02T08:52:40.190Z,0.23
2019-01-02T08:53:40.421Z,0.17
2019-01-02T08:54:40.392Z,0.16
2019-01-02T08:55:40.379Z,0.21
2019-01-02T08:56:40.108Z,0.19
2019-01-02T08:57:40.339Z,0.2
2019-01-02T08:58:40.325Z,0.17
2019-01-02T08:59:40.300Z,0.14
2019-01-02T09:00:40.035Z,0.17
2019-01-02T09:01:40.259Z,0.17
2019-01-02T09:02:40.246Z,0.17
2019-01-02T09:03:40.224Z,0.23
2019-01-02T09:04:40.202Z,0.27
2019-01-02T09:05:39.936Z,0.24
2019-01-02T09:06:39.929Z,0.26
2019-01-02T09:07:40.147Z,0.42
2019-01-02T09:08:40.140Z,0.28
2019-01-02T09:09:40.113Z,0.37
2019-01-02T09:10:39.843Z,0.34
2019-01-02T09:11:40.069Z,0.44
2019-01-02T09:12:40.047Z,0.35
2019-01-02T09:13:39.781Z,0.42
2019-01-02T09:14:40.010Z,0.42
2019-01-02T09:15:39.993Z,0.32
2019-01-02T09:16:39.725Z,0.32
2019-01-02T09:17:39.707Z,0.35
2019-01-02T09:18:39.937Z,0.44
2019-01-02T09:19:39.663Z,0.37
2019-01-02T09:20:39.899Z,0.42
2019-01-02T09:21:39.877Z,0.38
2019-01-02T09:22:39.602Z,0.34
2019-01-02T09:23:39.835Z,0.37
2019-01-02T09:24:39.816Z,0.31
2019-01-02T09:25:39.795Z,0.32
2019-01-02T09:26:39.777Z,0.34
2019-01-02T09:27:39.759Z,0.34
2019-01-02T09:28:39.739Z,0.35
2019-01-02T09:29:41.077Z,0.35
2019-01-02T09:30:39.700Z,0.39
2019-01-02T09:31:39.452Z,0.44
2019-01-02T09:32:39.676Z,0.34
2019-01-02T09:33:39.644Z,0.41
2019-01-02T09:34:39.403Z,0.37
2019-01-02T09:35:39.360Z,0.37
2019-01-02T09:36:39.591Z,0.38
2019-01-02T09:37:39.567Z,0.47
2019-01-02T09:38:39.556Z,0.56
2019-01-02T09:39:39.523Z,0.53
2019-01-02T09:40:39.756Z,0.56
2019-01-02T09:41:39.498Z,0.53
2019-01-02T09:42:39.473Z,0.64
2019-01-02T09:43:39.448Z,0.66
2019-01-02T09:44:39.428Z,0.64
2019-01-02T09:45:39.166Z,0.63
2019-01-02T09:46:39.476Z,0.57
2019-01-02T09:47:39.431Z,0.53
2019-01-02T09:48:39.351Z,0.64
2019-01-02T09:49:39.340Z,0.58
2019-01-02T09:50:39.319Z,0.61
2019-01-02T09:51:39.294Z,0.6
2019-01-02T09:52:39.282Z,0.57
2019-01-02T09:53:39.259Z,0.56
2019-01-02T09:54:39.002Z,0.53
2019-01-02T09:55:38.976Z,0.56
2019-01-02T09:56:39.203Z,0.48
2019-01-02T09:57:39.185Z,0.47
2019-01-02T09:58:39.160Z,0.53
2019-01-02T09:59:38.647Z,0.47
2019-01-02T10:00:39.125Z,0.45
2019-01-02T10:01:38.857Z,0.53
2019-01-02T10:02:39.084Z,0.47
2019-01-02T10:03:39.066Z,0.42
2019-01-02T10:04:39.049Z,0.47
2019-01-02T10:05:39.029Z,0.44
2019-01-02T10:06:39.014Z,0.47
2019-01-02T10:07:38.989Z,0.42
2019-01-02T10:08:38.969Z,0.41
2019-01-02T10:09:38.949Z,0.37
2019-01-02T10:10:38.937Z,0.48
2019-01-02T10:11:38.915Z,0.44
2019-01-02T10:12:38.895Z,0.45
2019-01-02T10:13:38.875Z,0.35
2019-01-02T10:14:38.610Z,0.42
2019-01-02T10:15:38.845Z,0.44
2019-01-02T10:16:38.822Z,0.24
2019-01-02T10:17:38.805Z,0.17
2019-01-02T10:18:38.786Z,0.2
2019-01-02T10:19:38.767Z,0.14
2019-01-02T10:20:43.807Z,0.16
2019-01-02T10:21:38.477Z,0.19
2019-01-02T10:22:38.705Z,0.17
2019-01-02T10:23:38.695Z,0.24
2019-01-02T10:24:38.673Z,0.2
2019-01-02T10:25:38.396Z,0.23
2019-01-02T10:26:38.628Z,0.28
2019-01-02T10:27:38.417Z,0.27
2019-01-02T10:28:38.642Z,0.37
2019-01-02T10:29:38.573Z,0.42
2019-01-02T10:30:38.552Z,0.6
2019-01-02T10:31:38.531Z,0.67
2019-01-02T10:32:38.513Z,0.57
2019-01-02T10:33:38.495Z,0.64
2019-01-02T10:34:38.476Z,0.56
2019-01-02T10:35:38.456Z,0.56
2019-01-02T10:36:38.434Z,0.52
2019-01-02T10:37:38.173Z,0.52
2019-01-02T10:38:38.406Z,0.56
2019-01-02T10:39:38.387Z,0.61
2019-01-02T10:40:38.362Z,0.64
2019-01-02T10:41:38.342Z,0.69
2019-01-02T10:42:38.335Z,0.58
2019-01-02T10:43:38.410Z,0.58
2019-01-02T10:44:38.285Z,0.5
2019-01-02T10:45:38.263Z,0.47
2019-01-02T10:46:38.246Z,0.52
2019-01-02T10:47:38.267Z,0.52
2019-01-02T10:48:38.208Z,0.47
2019-01-02T10:49:38.193Z,0.44
2019-01-02T10:50:38.176Z,0.41
2019-01-02T10:51:38.157Z,0.44
2019-01-02T10:52:38.136Z,0.39
2019-01-02T10:53:38.120Z,0.5
2019-01-02T10:54:37.850Z,0.42
2019-01-02T10:55:38.078Z,0.47
2019-01-02T10:56:38.052Z,0.45
2019-01-02T10:57:38.039Z,0.23
2019-01-02T10:58:41.334Z,0.08
2019-01-02T10:59:37.747Z,-0.2
2019-01-02T11:00:37.983Z,-0.55
2019-01-02T11:01:37.711Z,-0.85
2019-01-02T11:02:37.938Z,-1.03
2019-01-02T11:03:37.930Z,-1.28
2019-01-02T11:04:37.903Z,-1.35
2019-01-02T11:05:37.880Z,-1.35
2019-01-02T11:06:37.861Z,-1.38
2019-01-02T11:07:37.843Z,-1.38
2019-01-02T11:08:37.821Z,-1.34
2019-01-02T11:09:37.813Z,-1.19
2019-01-02T11:10:37.534Z,-1.17
2019-01-02T11:11:37.766Z,-0.99
2019-01-02T11:12:37.744Z,-0.87
2019-01-02T11:13:37.735Z,-0.77
2019-01-02T11:14:37.704Z,-0.7
2019-01-02T11:15:37.440Z,-0.46
2019-01-02T11:16:37.677Z,-0.36
2019-01-02T11:17:37.704Z,-0.2
2019-01-02T11:18:37.629Z,-0.09
2019-01-02T11:19:37.608Z,-0.07
2019-01-02T11:20:37.592Z,-0.02
2019-01-02T11:21:37.576Z,0.03
2019-01-02T11:22:37.554Z,0.05
2019-01-02T11:23:37.533Z,0.1
2019-01-02T11:24:37.508Z,0.1
2019-01-02T11:25:37.241Z,0.06
2019-01-02T11:26:37.471Z,0.06
2019-01-02T11:27:37.451Z,0.02
2019-01-02T11:28:37.455Z,-0.12
2019-01-02T11:29:37.441Z,-0.12
2019-01-02T11:30:37.146Z,-0.27
2019-01-02T11:31:37.373Z,-0.25
2019-01-02T11:32:37.375Z,-0.34
2019-01-02T11:33:37.341Z,-0.36
2019-01-02T11:34:37.317Z,-0.4
2019-01-02T11:35:37.302Z,-0.41
2019-01-02T11:36:37.048Z,-0.55
2019-01-02T11:37:37.012Z,-0.51
2019-01-02T11:38:37.239Z,-0.45
2019-01-02T11:39:37.220Z,-0.48
2019-01-02T11:40:37.196Z,-0.51
2019-01-02T11:41:36.938Z,-0.38
2019-01-02T11:42:37.163Z,-0.33
2019-01-02T11:43:37.139Z,-0.41
2019-01-02T11:44:37.170Z,-0.34
2019-01-02T11:45:37.102Z,-0.34
2019-01-02T11:46:37.083Z,-0.18
2019-01-02T11:47:37.066Z,-0.09
2019-01-02T11:48:37.042Z,-0.05
2019-01-02T11:49:37.079Z,0.01
2019-01-02T11:50:37.041Z,0.1
2019-01-02T11:51:37.023Z,0.09
2019-01-02T11:52:36.998Z,0.19
2019-01-02T11:53:37.036Z,0.16
2019-01-02T11:54:37.020Z,0.1
2019-01-02T11:55:36.763Z,0.13
2019-01-02T11:56:37.051Z,0.1
2019-01-02T11:57:36.770Z,0.16
2019-01-02T11:58:37.035Z,0.14
2019-01-02T11:59:37.039Z,0.2
2019-01-02T12:00:37.026Z,0.13
2019-01-02T12:01:36.751Z,0.17
2019-01-02T12:02:39.118Z,0.24
2019-01-02T12:03:37.023Z,0.19
2019-01-02T12:04:36.998Z,0.23
2019-01-02T12:05:37.052Z,0.14
2019-01-02T12:06:37.025Z,0.1
2019-01-02T12:07:37.524Z,0.13
2019-01-02T12:08:37.048Z,0.13
2019-01-02T12:09:36.776Z,0.1
2019-01-02T12:10:37.007Z,0.09
2019-01-02T12:11:36.587Z,0.05
2019-01-02T12:12:37.036Z,0.1
2019-01-02T12:13:37.006Z,0.06
2019-01-02T12:14:36.796Z,0.17
2019-01-02T12:15:37.030Z,0.2
2019-01-02T12:16:36.764Z,0.17
2019-01-02T12:17:36.494Z,0.1
2019-01-02T12:18:36.972Z,0.1
2019-01-02T12:19:36.507Z,0.13
2019-01-02T12:20:36.445Z,0.27
2019-01-02T12:21:36.923Z,0.17
2019-01-02T12:22:36.904Z,0.23
2019-01-02T12:23:36.878Z,0.17
2019-01-02T12:24:36.908Z,0.17
2019-01-02T12:25:36.844Z,0.2
2019-01-02T12:26:36.819Z,0.16
2019-01-02T12:27:36.810Z,0.13
2019-01-02T12:28:36.780Z,0.16
2019-01-02T12:29:36.762Z,0.09
2019-01-02T12:30:36.746Z,0.13
2019-01-02T12:31:36.724Z,0.14
2019-01-02T12:32:36.704Z,0.1
2019-01-02T12:33:36.444Z,0.08
2019-01-02T12:34:36.667Z,0.02
2019-01-02T12:35:36.641Z,-0.07
2019-01-02T12:36:36.624Z,-0.09
2019-01-02T12:37:36.608Z,-0.19
2019-01-02T12:38:36.591Z,-0.1
2019-01-02T12:39:36.569Z,-0.16
2019-01-02T12:40:36.550Z,-0.23
2019-01-02T12:41:36.531Z,-0.18
2019-01-02T12:42:36.269Z,-0.19
2019-01-02T12:43:36.491Z,-0.27
2019-01-02T12:44:36.223Z,-0.23
2019-01-02T12:45:36.459Z,-0.22
2019-01-02T12:46:36.431Z,-0.19
2019-01-02T12:47:36.410Z,-0.16
2019-01-02T12:48:36.396Z,-0.15
2019-01-02T12:49:36.373Z,-0.1
2019-01-02T12:50:36.361Z,-0.15
2019-01-02T12:51:36.339Z,-0.13
2019-01-02T12:52:36.323Z,-0.1
2019-01-02T12:53:36.299Z,-0.1
2019-01-02T12:54:36.278Z,-0.15
2019-01-02T12:55:36.268Z,-0.13
2019-01-02T12:56:36.245Z,-0.05
2019-01-02T12:57:35.733Z,-0.05
2019-01-02T12:58:35.954Z,-0.1
2019-01-02T12:59:35.935Z,-0.01
2019-01-02T13:00:36.162Z,0.02
2019-01-02T13:01:36.142Z,0.01
2019-01-02T13:02:35.879Z,0.09
2019-01-02T13:03:35.852Z,0.03
2019-01-02T13:04:36.080Z,-0.02
2019-01-02T13:05:36.265Z,0.05
2019-01-02T13:06:36.046Z,0.02
2019-01-02T13:07:35.780Z,0.03
2019-01-02T13:08:36.004Z,0.05
2019-01-02T13:09:35.988Z,-0.22
2019-01-02T13:10:35.961Z,-0.19
2019-01-02T13:11:35.946Z,-0.28
2019-01-02T13:12:35.926Z,-0.41
2019-01-02T13:13:35.907Z,-0.49
2019-01-02T13:14:35.890Z,-0.45
2019-01-02T13:15:35.869Z,-0.48
2019-01-02T13:16:35.604Z,-0.45
2019-01-02T13:17:35.830Z,-0.4